createdAt,value
2022-11-21T00:00:05.439Z,649.91
2022-11-21T00:00:16.439Z,649.88
2022-11-21T00:00:28.443Z,649.82
2022-11-21T00:00:39.450Z,649.79
2022-11-21T00:00:50.453Z,649.80
2022-11-21T00:01:01.461Z,649.77
2022-11-21T00:01:12.462Z,649.72
2022-11-21T00:01:23.478Z,649.72
2022-11-21T00:01:34.459Z,649.69
2022-11-21T00:01:45.523Z,649.66
2022-11-21T00:01:57.437Z,649.66
2022-11-21T00:02:08.438Z,649.61
2022-11-21T00:02:19.488Z,649.60
2022-11-21T00:02:31.401Z,649.58
2022-11-21T00:02:42.410Z,649.55
2022-11-21T00:02:54.415Z,649.51
2022-11-21T00:03:05.422Z,649.52
2022-11-21T00:03:16.436Z,649.48
2022-11-21T00:03:27.444Z,649.47
2022-11-21T00:03:38.453Z,649.44
2022-11-21T00:03:49.466Z,649.43
2022-11-21T00:04:00.468Z,649.44
2022-11-21T00:04:11.469Z,649.42
2022-11-21T00:04:22.474Z,649.41
2022-11-21T00:04:33.479Z,649.38
2022-11-21T00:04:44.384Z,649.37
2022-11-21T00:04:55.379Z,649.39
2022-11-21T00:05:06.400Z,649.35
2022-11-21T00:05:17.405Z,649.36
2022-11-21T00:05:28.406Z,649.37
2022-11-21T00:05:39.408Z,649.36
2022-11-21T00:05:50.409Z,649.36
2022-11-21T00:06:02.417Z,649.36
2022-11-21T00:06:14.419Z,649.38
2022-11-21T00:06:25.434Z,649.38
2022-11-21T00:06:37.438Z,649.37
2022-11-21T00:06:48.443Z,649.40
2022-11-21T00:07:00.537Z,649.41
2022-11-21T00:07:12.458Z,649.44
2022-11-21T00:07:23.521Z,649.44
2022-11-21T00:07:34.455Z,649.45
2022-11-21T00:07:45.414Z,649.49
2022-11-21T00:07:57.411Z,649.49
2022-11-21T00:08:09.424Z,649.51
2022-11-21T00:08:20.448Z,649.56
2022-11-21T00:08:31.455Z,649.59
2022-11-21T00:08:42.484Z,649.58
2022-11-21T00:08:54.401Z,649.60
2022-11-21T00:09:05.410Z,649.60
2022-11-21T00:09:16.414Z,649.65
2022-11-21T00:09:27.428Z,649.66
2022-11-21T00:09:38.436Z,649.71
2022-11-21T00:09:49.442Z,649.70
2022-11-21T00:10:00.447Z,649.70
2022-11-21T00:10:12.453Z,649.73
2022-11-21T00:10:23.452Z,649.73
2022-11-21T00:10:34.457Z,649.77
2022-11-21T00:10:45.461Z,649.80
2022-11-21T00:10:56.474Z,649.82
2022-11-21T00:11:07.486Z,649.84
2022-11-21T00:11:19.479Z,649.88
2022-11-21T00:11:31.406Z,649.90
2022-11-21T00:11:42.448Z,649.94
2022-11-21T00:11:53.463Z,649.96
2022-11-21T00:12:04.472Z,649.98
2022-11-21T00:12:15.479Z,650.02
2022-11-21T00:12:26.483Z,650.06
2022-11-21T00:12:38.406Z,650.10
2022-11-21T00:12:49.412Z,650.12
2022-11-21T00:13:01.421Z,650.17
2022-11-21T00:13:13.449Z,650.21
2022-11-21T00:13:24.460Z,650.23
2022-11-21T00:13:36.471Z,650.28
2022-11-21T00:13:47.487Z,650.29
2022-11-21T00:13:59.406Z,650.30
2022-11-21T00:14:10.409Z,650.33
2022-11-21T00:14:22.416Z,650.38
2022-11-21T00:14:33.414Z,650.37
2022-11-21T00:14:44.430Z,650.38
2022-11-21T00:14:55.439Z,650.41
2022-11-21T00:15:06.452Z,650.42
2022-11-21T00:15:17.467Z,650.46
2022-11-21T00:15:28.478Z,650.47
2022-11-21T00:15:40.481Z,650.52
2022-11-21T00:15:52.388Z,650.56
2022-11-21T00:16:03.400Z,650.57
2022-11-21T00:16:14.425Z,650.60
2022-11-21T00:16:25.442Z,650.63
2022-11-21T00:16:36.455Z,650.66
2022-11-21T00:16:47.467Z,650.70
2022-11-21T00:16:58.468Z,650.73
2022-11-21T00:17:09.473Z,650.74
2022-11-21T00:17:20.476Z,650.81
2022-11-21T00:17:31.485Z,650.82
2022-11-21T00:17:43.385Z,650.84
2022-11-21T00:17:54.389Z,650.88
2022-11-21T00:18:05.396Z,650.92
2022-11-21T00:18:16.424Z,650.96
2022-11-21T00:18:27.442Z,650.95
2022-11-21T00:18:38.449Z,651.00
2022-11-21T00:18:50.461Z,651.02
2022-11-21T00:19:02.467Z,651.04
2022-11-21T00:19:13.483Z,651.09
2022-11-21T00:19:25.401Z,651.13
2022-11-21T00:19:36.409Z,651.12
2022-11-21T00:19:47.425Z,651.13
2022-11-21T00:19:58.447Z,651.19
2022-11-21T00:20:09.453Z,651.20
2022-11-21T00:20:20.452Z,651.22
2022-11-21T00:20:31.464Z,651.27
2022-11-21T00:20:42.481Z,651.30
2022-11-21T00:20:53.483Z,651.32
2022-11-21T00:21:05.406Z,651.34
2022-11-21T00:21:16.429Z,651.37
2022-11-21T00:21:27.430Z,651.38
2022-11-21T00:21:38.441Z,651.42
2022-11-21T00:21:49.450Z,651.45
2022-11-21T00:22:00.456Z,651.48
2022-11-21T00:22:11.470Z,651.53
2022-11-21T00:22:22.475Z,651.54
2022-11-21T00:22:33.391Z,651.56
2022-11-21T00:22:44.396Z,651.59
2022-11-21T00:22:55.402Z,651.61
2022-11-21T00:23:06.414Z,651.64
2022-11-21T00:23:17.443Z,651.65
2022-11-21T00:23:28.460Z,651.67
2022-11-21T00:23:39.471Z,651.68
2022-11-21T00:23:50.483Z,651.70
2022-11-21T00:24:01.487Z,651.71
2022-11-21T00:24:13.414Z,651.73
2022-11-21T00:24:24.773Z,651.77
2022-11-21T00:24:35.449Z,651.80
2022-11-21T00:24:48.597Z,651.80
2022-11-21T00:24:59.470Z,651.81
2022-11-21T00:25:09.490Z,651.84
2022-11-21T00:25:21.408Z,651.89
2022-11-21T00:25:32.425Z,651.92
2022-11-21T00:25:43.445Z,651.96
2022-11-21T00:25:54.464Z,651.96
2022-11-21T00:26:05.505Z,651.99
2022-11-21T00:26:16.393Z,652.02
2022-11-21T00:26:27.396Z,652.06
2022-11-21T00:26:38.404Z,652.05
2022-11-21T00:26:50.404Z,652.06
2022-11-21T00:27:01.413Z,652.07
2022-11-21T00:27:12.418Z,652.13
2022-11-21T00:27:23.420Z,652.16
2022-11-21T00:27:34.452Z,652.19
2022-11-21T00:27:46.457Z,652.24
2022-11-21T00:27:57.465Z,652.28
2022-11-21T00:28:08.467Z,652.28
2022-11-21T00:28:19.501Z,652.31
2022-11-21T00:28:31.408Z,652.37
2022-11-21T00:28:42.416Z,652.37
2022-11-21T00:28:53.417Z,652.42
2022-11-21T00:29:04.427Z,652.46
2022-11-21T00:29:15.432Z,652.45
2022-11-21T00:29:26.451Z,652.47
2022-11-21T00:29:38.460Z,652.53
2022-11-21T00:29:49.480Z,652.56
2022-11-21T00:30:00.484Z,652.58
2022-11-21T00:30:12.484Z,652.64
2022-11-21T00:30:24.407Z,652.65
2022-11-21T00:30:35.425Z,652.66
2022-11-21T00:30:46.428Z,652.71
2022-11-21T00:30:57.449Z,652.72
2022-11-21T00:31:08.449Z,652.75
2022-11-21T00:31:19.458Z,652.77
2022-11-21T00:31:30.468Z,652.76
2022-11-21T00:31:41.474Z,652.77
2022-11-21T00:31:53.488Z,652.76
2022-11-21T00:32:05.414Z,652.74
2022-11-21T00:32:17.417Z,652.71
2022-11-21T00:32:28.434Z,652.70
2022-11-21T00:32:39.458Z,652.69
2022-11-21T00:32:50.460Z,652.68
2022-11-21T00:33:01.482Z,652.64
2022-11-21T00:33:13.409Z,652.62
2022-11-21T00:33:24.458Z,652.60
2022-11-21T00:33:35.451Z,652.59
2022-11-21T00:33:46.456Z,652.57
2022-11-21T00:33:57.482Z,652.56
2022-11-21T00:34:08.389Z,652.52
2022-11-21T00:34:19.414Z,652.52
2022-11-21T00:34:30.420Z,652.48
2022-11-21T00:34:41.435Z,652.49
2022-11-21T00:34:52.447Z,652.45
2022-11-21T00:35:03.451Z,652.42
2022-11-21T00:35:14.459Z,652.42
2022-11-21T00:35:25.464Z,652.40
2022-11-21T00:35:36.471Z,652.37
2022-11-21T00:35:47.474Z,652.34
2022-11-21T00:35:58.483Z,652.34
2022-11-21T00:36:09.405Z,652.31
2022-11-21T00:36:20.401Z,652.29
2022-11-21T00:36:31.405Z,652.29
2022-11-21T00:36:42.410Z,652.27
2022-11-21T00:36:53.426Z,652.26
2022-11-21T00:37:04.439Z,652.23
2022-11-21T00:37:15.446Z,652.24
2022-11-21T00:37:26.474Z,652.25
2022-11-21T00:37:37.488Z,652.28
2022-11-21T00:37:48.393Z,652.28
2022-11-21T00:37:59.393Z,652.29
2022-11-21T00:38:10.398Z,652.28
2022-11-21T00:38:21.431Z,652.31
2022-11-21T00:38:32.435Z,652.31
2022-11-21T00:38:44.439Z,652.32
2022-11-21T00:38:56.443Z,652.31
2022-11-21T00:39:08.449Z,652.37
2022-11-21T00:39:20.449Z,652.39
2022-11-21T00:39:32.450Z,652.41
2022-11-21T00:39:43.455Z,652.43
2022-11-21T00:39:54.459Z,652.48
2022-11-21T00:40:06.456Z,652.51
2022-11-21T00:40:17.464Z,652.52
2022-11-21T00:40:28.477Z,652.54
2022-11-21T00:40:39.484Z,652.57
2022-11-21T00:40:51.404Z,652.61
2022-11-21T00:41:02.409Z,652.60
2022-11-21T00:41:13.418Z,652.61
2022-11-21T00:41:24.432Z,652.66
2022-11-21T00:41:35.458Z,652.68
2022-11-21T00:41:46.463Z,652.71
2022-11-21T00:41:57.478Z,652.75
2022-11-21T00:42:08.491Z,652.77
2022-11-21T00:42:19.404Z,652.79
2022-11-21T00:42:30.401Z,652.83
2022-11-21T00:42:41.407Z,652.84
2022-11-21T00:42:52.423Z,652.87
2022-11-21T00:43:03.434Z,652.88
2022-11-21T00:43:14.425Z,652.92
2022-11-21T00:43:25.449Z,652.91
2022-11-21T00:43:36.456Z,652.93
2022-11-21T00:43:47.459Z,652.92
2022-11-21T00:43:58.475Z,652.93
2022-11-21T00:44:10.479Z,652.91
2022-11-21T00:44:22.403Z,652.92
2022-11-21T00:44:33.421Z,652.91
2022-11-21T00:44:44.422Z,652.91
2022-11-21T00:44:55.426Z,652.93
2022-11-21T00:45:06.430Z,652.91
2022-11-21T00:45:23.804Z,652.92
2022-11-21T00:45:31.419Z,652.93
2022-11-21T00:45:42.429Z,652.94
2022-11-21T00:45:53.438Z,652.96
2022-11-21T00:46:04.509Z,652.99
2022-11-21T00:46:15.458Z,652.99
2022-11-21T00:46:27.464Z,653.01
2022-11-21T00:46:39.463Z,652.99
2022-11-21T00:46:50.484Z,653.01
2022-11-21T00:47:02.400Z,653.02
2022-11-21T00:47:13.418Z,653.04
2022-11-21T00:47:24.415Z,653.03
2022-11-21T00:47:35.435Z,653.03
2022-11-21T00:47:47.439Z,653.01
2022-11-21T00:47:59.440Z,653.02
2022-11-21T00:48:10.453Z,653.02
2022-11-21T00:48:21.462Z,653.03
2022-11-21T00:48:32.483Z,653.04
2022-11-21T00:48:43.482Z,653.00
2022-11-21T00:48:55.394Z,653.00
2022-11-21T00:49:06.402Z,652.99
2022-11-21T00:49:17.406Z,653.00
2022-11-21T00:49:28.425Z,653.01
2022-11-21T00:49:39.435Z,653.00
2022-11-21T00:49:50.433Z,653.01
2022-11-21T00:50:01.446Z,653.00
2022-11-21T00:50:12.456Z,653.01
2022-11-21T00:50:23.474Z,653.00
2022-11-21T00:50:34.475Z,652.98
2022-11-21T00:50:45.390Z,653.01
2022-11-21T00:50:56.401Z,653.02
2022-11-21T00:51:07.416Z,653.02
2022-11-21T00:51:18.423Z,652.99
2022-11-21T00:51:29.425Z,653.00
2022-11-21T00:51:40.442Z,652.98
2022-11-21T00:51:51.457Z,652.98
2022-11-21T00:52:02.463Z,652.99
2022-11-21T00:52:13.467Z,653.00
2022-11-21T00:52:24.486Z,652.99
2022-11-21T00:52:36.414Z,652.96
2022-11-21T00:52:47.430Z,652.96
2022-11-21T00:52:58.440Z,652.98
2022-11-21T00:53:09.456Z,652.99
2022-11-21T00:53:20.466Z,653.00
2022-11-21T00:53:32.476Z,653.00
2022-11-21T00:53:43.484Z,653.00
2022-11-21T00:53:55.400Z,652.99
2022-11-21T00:54:06.413Z,652.98
2022-11-21T00:54:17.412Z,652.97
2022-11-21T00:54:29.683Z,652.97
2022-11-21T00:54:40.464Z,653.00
2022-11-21T00:54:51.474Z,653.04
2022-11-21T00:55:03.481Z,653.04
2022-11-21T00:55:15.484Z,653.00
2022-11-21T00:55:27.413Z,653.00
2022-11-21T00:55:38.430Z,653.03
2022-11-21T00:55:49.436Z,653.03
2022-11-21T00:56:00.443Z,653.01
2022-11-21T00:56:11.452Z,653.04
2022-11-21T00:56:22.460Z,653.02
2022-11-21T00:56:33.465Z,653.04
2022-11-21T00:56:44.473Z,653.04
2022-11-21T00:56:56.486Z,653.06
2022-11-21T00:57:08.408Z,653.08
2022-11-21T00:57:19.423Z,653.05
2022-11-21T00:57:30.450Z,653.06
2022-11-21T00:57:41.447Z,653.05
2022-11-21T00:57:52.466Z,653.04
2022-11-21T00:58:03.486Z,653.02
2022-11-21T00:58:15.403Z,653.01
2022-11-21T00:58:26.479Z,652.98
2022-11-21T00:58:37.389Z,652.95
2022-11-21T00:58:48.408Z,652.96
2022-11-21T00:58:59.411Z,652.91
2022-11-21T00:59:10.430Z,652.88
2022-11-21T00:59:21.437Z,652.82
2022-11-21T00:59:32.447Z,652.79
2022-11-21T00:59:43.464Z,652.73
2022-11-21T00:59:54.486Z,652.72
2022-11-21T01:00:06.401Z,652.66
2022-11-21T01:00:17.416Z,652.62
2022-11-21T01:00:28.514Z,652.63
2022-11-21T01:00:39.447Z,652.62
2022-11-21T01:00:50.543Z,652.59
2022-11-21T01:01:02.497Z,652.56
2022-11-21T01:01:13.636Z,652.56
2022-11-21T01:01:25.517Z,652.53
2022-11-21T01:01:36.387Z,652.52
2022-11-21T01:01:47.390Z,652.47
2022-11-21T01:01:58.399Z,652.47
2022-11-21T01:02:09.408Z,652.46
2022-11-21T01:02:20.410Z,652.43
2022-11-21T01:02:31.427Z,652.41
2022-11-21T01:02:42.437Z,652.38
2022-11-21T01:02:53.461Z,652.37
2022-11-21T01:03:04.458Z,652.35
2022-11-21T01:03:15.479Z,652.34
2022-11-21T01:03:26.503Z,652.35
2022-11-21T01:03:38.412Z,652.32
2022-11-21T01:03:49.423Z,652.30
2022-11-21T01:04:01.419Z,652.29
2022-11-21T01:04:13.421Z,652.24
2022-11-21T01:04:24.595Z,652.27
2022-11-21T01:04:35.468Z,652.25
2022-11-21T01:04:46.465Z,652.28
2022-11-21T01:04:57.479Z,652.28
2022-11-21T01:05:08.494Z,652.29
2022-11-21T01:05:20.412Z,652.29
2022-11-21T01:05:31.414Z,652.33
2022-11-21T01:05:43.421Z,652.32
2022-11-21T01:05:54.447Z,652.35
2022-11-21T01:06:05.459Z,652.38
2022-11-21T01:06:16.464Z,652.42
2022-11-21T01:06:27.473Z,652.44
2022-11-21T01:06:39.400Z,652.49
2022-11-21T01:06:50.414Z,652.50
2022-11-21T01:07:01.565Z,652.54
2022-11-21T01:07:12.444Z,652.59
2022-11-21T01:07:23.491Z,652.62
2022-11-21T01:07:35.551Z,652.68
2022-11-21T01:07:47.414Z,652.72
2022-11-21T01:07:58.425Z,652.76
2022-11-21T01:08:09.430Z,652.77
2022-11-21T01:08:21.437Z,652.82
2022-11-21T01:08:32.449Z,652.88
2022-11-21T01:08:43.457Z,652.90
2022-11-21T01:08:54.466Z,652.94
2022-11-21T01:09:05.483Z,652.94
2022-11-21T01:09:17.404Z,653.00
2022-11-21T01:09:29.413Z,653.03
2022-11-21T01:09:40.415Z,653.06
2022-11-21T01:09:51.422Z,653.09
2022-11-21T01:10:02.433Z,653.12
2022-11-21T01:10:13.442Z,653.11
2022-11-21T01:10:24.450Z,653.16
2022-11-21T01:10:36.456Z,653.18
2022-11-21T01:10:47.458Z,653.19
2022-11-21T01:10:58.477Z,653.22
2022-11-21T01:11:10.401Z,653.23
2022-11-21T01:11:22.405Z,653.26
2022-11-21T01:11:33.423Z,653.26
2022-11-21T01:11:44.436Z,653.25
2022-11-21T01:11:55.463Z,653.26
2022-11-21T01:12:06.484Z,653.28
2022-11-21T01:12:17.480Z,653.30
2022-11-21T01:12:28.509Z,653.29
2022-11-21T01:12:40.404Z,653.36
2022-11-21T01:12:52.417Z,653.39
2022-11-21T01:13:03.432Z,653.42
2022-11-21T01:13:14.439Z,653.44
2022-11-21T01:13:25.455Z,653.47
2022-11-21T01:13:36.477Z,653.49
2022-11-21T01:13:47.483Z,653.50
2022-11-21T01:13:59.392Z,653.53
2022-11-21T01:14:10.401Z,653.56
2022-11-21T01:14:22.407Z,653.58
2022-11-21T01:14:33.434Z,653.58
2022-11-21T01:14:44.444Z,653.61
2022-11-21T01:14:55.449Z,653.64
2022-11-21T01:15:06.454Z,653.66
2022-11-21T01:15:17.470Z,653.68
2022-11-21T01:15:28.470Z,653.69
2022-11-21T01:15:39.486Z,653.74
2022-11-21T01:15:51.402Z,653.75
2022-11-21T01:16:02.409Z,653.73
2022-11-21T01:16:13.429Z,653.74
2022-11-21T01:16:24.456Z,653.75
2022-11-21T01:16:35.457Z,653.78
2022-11-21T01:16:46.457Z,653.74
2022-11-21T01:16:57.476Z,653.76
2022-11-21T01:17:08.475Z,653.75
2022-11-21T01:17:20.476Z,653.72
2022-11-21T01:17:31.481Z,653.72
2022-11-21T01:17:42.483Z,653.70
2022-11-21T01:17:54.401Z,653.68
2022-11-21T01:18:05.406Z,653.68
2022-11-21T01:18:16.421Z,653.66
2022-11-21T01:18:28.426Z,653.70
2022-11-21T01:18:39.447Z,653.64
2022-11-21T01:18:50.449Z,653.68
2022-11-21T01:19:01.452Z,653.65
2022-11-21T01:19:12.467Z,653.66
2022-11-21T01:19:23.473Z,653.63
2022-11-21T01:19:35.477Z,653.66
2022-11-21T01:19:46.478Z,653.69
2022-11-21T01:19:58.397Z,653.70
2022-11-21T01:20:09.417Z,653.74
2022-11-21T01:20:20.422Z,653.76
2022-11-21T01:20:31.424Z,653.79
2022-11-21T01:20:43.431Z,653.82
2022-11-21T01:20:54.450Z,653.81
2022-11-21T01:21:05.467Z,653.84
2022-11-21T01:21:16.480Z,653.82
2022-11-21T01:21:27.390Z,653.83
2022-11-21T01:21:39.395Z,653.86
2022-11-21T01:21:50.403Z,653.90
2022-11-21T01:22:01.403Z,653.92
2022-11-21T01:22:12.413Z,653.93
2022-11-21T01:22:23.409Z,653.94
2022-11-21T01:22:35.434Z,653.95
2022-11-21T01:22:46.433Z,654.00
2022-11-21T01:22:57.440Z,653.98
2022-11-21T01:23:08.439Z,654.07
2022-11-21T01:23:20.468Z,654.10
2022-11-21T01:23:31.447Z,654.13
2022-11-21T01:23:42.462Z,654.13
2022-11-21T01:23:53.468Z,654.17
2022-11-21T01:24:05.474Z,654.22
2022-11-21T01:24:16.485Z,654.26
2022-11-21T01:24:27.788Z,654.27
2022-11-21T01:24:39.473Z,654.29
2022-11-21T01:24:50.482Z,654.34
2022-11-21T01:25:01.393Z,654.36
2022-11-21T01:25:12.395Z,654.37
2022-11-21T01:25:23.408Z,654.38
2022-11-21T01:25:34.417Z,654.38
2022-11-21T01:25:45.419Z,654.44
2022-11-21T01:25:56.427Z,654.44
2022-11-21T01:26:07.440Z,654.49
2022-11-21T01:26:18.439Z,654.50
2022-11-21T01:26:29.458Z,654.55
2022-11-21T01:26:41.461Z,654.52
2022-11-21T01:26:52.468Z,654.55
2022-11-21T01:27:03.471Z,654.57
2022-11-21T01:27:14.477Z,654.54
2022-11-21T01:27:25.485Z,654.54
2022-11-21T01:27:36.510Z,654.56
2022-11-21T01:27:48.393Z,654.55
2022-11-21T01:27:59.398Z,654.53
2022-11-21T01:28:10.415Z,654.53
2022-11-21T01:28:21.425Z,654.53
2022-11-21T01:28:33.436Z,654.55
2022-11-21T01:28:44.459Z,654.58
2022-11-21T01:28:55.461Z,654.53
2022-11-21T01:29:07.461Z,654.53
2022-11-21T01:29:19.465Z,654.49
2022-11-21T01:29:30.471Z,654.50
2022-11-21T01:29:41.481Z,654.49
2022-11-21T01:29:53.406Z,654.47
2022-11-21T01:30:04.408Z,654.45
2022-11-21T01:30:15.431Z,654.44
2022-11-21T01:30:27.436Z,654.40
2022-11-21T01:30:38.434Z,654.38
2022-11-21T01:30:50.441Z,654.35
2022-11-21T01:31:02.446Z,654.30
2022-11-21T01:31:14.448Z,654.30
2022-11-21T01:31:25.451Z,654.28
2022-11-21T01:31:36.458Z,654.27
2022-11-21T01:31:47.460Z,654.20
2022-11-21T01:31:58.460Z,654.20
2022-11-21T01:32:09.462Z,654.19
2022-11-21T01:32:20.468Z,654.20
2022-11-21T01:32:31.485Z,654.17
2022-11-21T01:32:42.486Z,654.16
2022-11-21T01:32:54.403Z,654.16
2022-11-21T01:33:06.422Z,654.15
2022-11-21T01:33:17.429Z,654.16
2022-11-21T01:33:28.444Z,654.18
2022-11-21T01:33:39.451Z,654.17
2022-11-21T01:33:50.474Z,654.18
2022-11-21T01:34:02.395Z,654.17
2022-11-21T01:34:13.407Z,654.18
2022-11-21T01:34:24.477Z,654.21
2022-11-21T01:34:35.446Z,654.23
2022-11-21T01:34:46.460Z,654.24
2022-11-21T01:34:57.461Z,654.24
2022-11-21T01:35:08.479Z,654.23
2022-11-21T01:35:19.483Z,654.26
2022-11-21T01:35:31.395Z,654.28
2022-11-21T01:35:43.402Z,654.28
2022-11-21T01:35:54.412Z,654.27
2022-11-21T01:36:05.454Z,654.27
2022-11-21T01:36:16.435Z,654.27
2022-11-21T01:36:28.438Z,654.27
2022-11-21T01:36:39.455Z,654.27
2022-11-21T01:36:50.469Z,654.29
2022-11-21T01:37:01.458Z,654.30
2022-11-21T01:37:12.467Z,654.33
2022-11-21T01:37:23.485Z,654.35
2022-11-21T01:37:35.391Z,654.37
2022-11-21T01:37:46.406Z,654.38
2022-11-21T01:37:58.412Z,654.39
2022-11-21T01:38:09.415Z,654.40
2022-11-21T01:38:20.425Z,654.41
2022-11-21T01:38:31.431Z,654.43
2022-11-21T01:38:42.461Z,654.43
2022-11-21T01:38:53.470Z,654.46
2022-11-21T01:39:04.479Z,654.45
2022-11-21T01:39:15.486Z,654.45
2022-11-21T01:39:26.388Z,654.46
2022-11-21T01:39:37.392Z,654.46
2022-11-21T01:39:49.398Z,654.48
2022-11-21T01:40:00.417Z,654.45
2022-11-21T01:40:11.418Z,654.45
2022-11-21T01:40:22.420Z,654.44
2022-11-21T01:40:33.437Z,654.45
2022-11-21T01:40:44.443Z,654.42
2022-11-21T01:40:55.448Z,654.43
2022-11-21T01:41:06.453Z,654.40
2022-11-21T01:41:17.458Z,654.42
2022-11-21T01:41:28.485Z,654.38
2022-11-21T01:41:40.405Z,654.38
2022-11-21T01:41:51.420Z,654.35
2022-11-21T01:42:02.423Z,654.34
2022-11-21T01:42:13.427Z,654.33
2022-11-21T01:42:24.432Z,654.33
2022-11-21T01:42:36.435Z,654.32
2022-11-21T01:42:47.471Z,654.29
2022-11-21T01:42:58.464Z,654.30
2022-11-21T01:43:09.474Z,654.29
2022-11-21T01:43:20.476Z,654.31
2022-11-21T01:43:31.407Z,654.29
2022-11-21T01:43:42.414Z,654.29
2022-11-21T01:43:53.431Z,654.29
2022-11-21T01:44:04.433Z,654.28
2022-11-21T01:44:15.440Z,654.29
2022-11-21T01:44:27.761Z,654.34
2022-11-21T01:44:39.450Z,654.33
2022-11-21T01:44:50.462Z,654.36
2022-11-21T01:45:01.468Z,654.34
2022-11-21T01:45:12.479Z,654.39
2022-11-21T01:45:23.483Z,654.39
2022-11-21T01:45:34.387Z,654.39
2022-11-21T01:45:45.485Z,654.37
2022-11-21T01:45:57.390Z,654.38
2022-11-21T01:46:08.395Z,654.39
2022-11-21T01:46:19.406Z,654.39
2022-11-21T01:46:30.415Z,654.39
2022-11-21T01:46:41.424Z,654.36
2022-11-21T01:46:52.429Z,654.36
2022-11-21T01:47:03.438Z,654.33
2022-11-21T01:47:14.451Z,654.33
2022-11-21T01:47:26.454Z,654.33
2022-11-21T01:47:37.460Z,654.31
2022-11-21T01:47:48.466Z,654.29
2022-11-21T01:47:59.480Z,654.33
2022-11-21T01:48:11.489Z,654.31
2022-11-21T01:48:23.401Z,654.29
2022-11-21T01:48:34.407Z,654.31
2022-11-21T01:48:45.428Z,654.31
2022-11-21T01:48:57.447Z,654.35
2022-11-21T01:49:08.467Z,654.39
2022-11-21T01:49:19.476Z,654.40
2022-11-21T01:49:30.383Z,654.44
2022-11-21T01:49:41.392Z,654.47
2022-11-21T01:49:52.428Z,654.49
2022-11-21T01:50:03.413Z,654.49
2022-11-21T01:50:14.417Z,654.53
2022-11-21T01:50:25.433Z,654.51
2022-11-21T01:50:36.438Z,654.53
2022-11-21T01:50:48.445Z,654.56
2022-11-21T01:50:59.450Z,654.58
2022-11-21T01:51:10.461Z,654.55
2022-11-21T01:51:21.461Z,654.55
2022-11-21T01:51:32.474Z,654.54
2022-11-21T01:51:43.479Z,654.57
2022-11-21T01:51:54.489Z,654.52
2022-11-21T01:52:06.398Z,654.50
2022-11-21T01:52:18.403Z,654.50
2022-11-21T01:52:30.397Z,654.46
2022-11-21T01:52:41.412Z,654.44
2022-11-21T01:52:52.417Z,654.44
2022-11-21T01:53:03.426Z,654.40
2022-11-21T01:53:14.429Z,654.38
2022-11-21T01:53:25.456Z,654.37
2022-11-21T01:53:36.448Z,654.37
2022-11-21T01:53:47.474Z,654.35
2022-11-21T01:53:58.484Z,654.35
2022-11-21T01:54:10.406Z,654.35
2022-11-21T01:54:21.411Z,654.36
2022-11-21T01:54:32.420Z,654.34
2022-11-21T01:54:43.423Z,654.33
2022-11-21T01:54:55.435Z,654.36
2022-11-21T01:55:06.464Z,654.37
2022-11-21T01:55:17.464Z,654.33
2022-11-21T01:55:28.485Z,654.31
2022-11-21T01:55:40.412Z,654.32
2022-11-21T01:55:52.400Z,654.32
2022-11-21T01:56:04.404Z,654.29
2022-11-21T01:56:16.414Z,654.25
2022-11-21T01:56:27.415Z,654.26
2022-11-21T01:56:38.417Z,654.24
2022-11-21T01:56:49.430Z,654.20
2022-11-21T01:57:00.430Z,654.16
2022-11-21T01:57:11.448Z,654.14
2022-11-21T01:57:22.464Z,654.09
2022-11-21T01:57:33.469Z,654.07
2022-11-21T01:57:44.386Z,654.04
2022-11-21T01:57:55.415Z,654.02
2022-11-21T01:58:06.397Z,653.98
2022-11-21T01:58:17.399Z,653.95
2022-11-21T01:58:29.407Z,653.93
2022-11-21T01:58:40.416Z,653.90
2022-11-21T01:58:51.440Z,653.86
2022-11-21T01:59:02.463Z,653.84
2022-11-21T01:59:13.459Z,653.84
2022-11-21T01:59:24.479Z,653.81
2022-11-21T01:59:36.482Z,653.81
2022-11-21T01:59:48.398Z,653.79
2022-11-21T01:59:59.401Z,653.76
2022-11-21T02:00:10.419Z,653.77
2022-11-21T02:00:21.418Z,653.77
2022-11-21T02:00:32.424Z,653.74
2022-11-21T02:00:43.489Z,653.72
2022-11-21T02:00:54.557Z,653.71
2022-11-21T02:01:06.501Z,653.70
2022-11-21T02:01:17.620Z,653.69
2022-11-21T02:01:29.520Z,653.69
2022-11-21T02:01:41.412Z,653.64
2022-11-21T02:01:52.425Z,653.63
2022-11-21T02:02:03.433Z,653.59
2022-11-21T02:02:14.433Z,653.58
2022-11-21T02:02:25.442Z,653.52
2022-11-21T02:02:36.445Z,653.52
2022-11-21T02:02:47.457Z,653.51
2022-11-21T02:02:58.472Z,653.47
2022-11-21T02:03:09.482Z,653.46
2022-11-21T02:03:21.393Z,653.45
2022-11-21T02:03:32.400Z,653.46
2022-11-21T02:03:43.414Z,653.45
2022-11-21T02:03:55.429Z,653.39
2022-11-21T02:04:06.428Z,653.40
2022-11-21T02:04:17.438Z,653.40
2022-11-21T02:04:28.773Z,653.37
2022-11-21T02:04:40.446Z,653.34
2022-11-21T02:04:51.447Z,653.30
2022-11-21T02:05:02.453Z,653.27
2022-11-21T02:05:13.461Z,653.20
2022-11-21T02:05:24.470Z,653.22
2022-11-21T02:05:35.472Z,653.19
2022-11-21T02:05:46.489Z,653.14
2022-11-21T02:05:58.405Z,653.06
2022-11-21T02:06:09.414Z,653.02
2022-11-21T02:06:21.417Z,653.03
2022-11-21T02:06:32.419Z,652.97
2022-11-21T02:06:43.429Z,652.93
2022-11-21T02:06:54.513Z,652.91
2022-11-21T02:07:06.498Z,652.87
2022-11-21T02:07:17.509Z,652.90
2022-11-21T02:07:28.442Z,652.84
2022-11-21T02:07:39.427Z,652.84
2022-11-21T02:07:50.421Z,652.81
2022-11-21T02:08:01.426Z,652.83
2022-11-21T02:08:12.434Z,652.77
2022-11-21T02:08:23.439Z,652.78
2022-11-21T02:08:34.445Z,652.78
2022-11-21T02:08:45.456Z,652.76
2022-11-21T02:08:56.470Z,652.75
2022-11-21T02:09:07.481Z,652.74
2022-11-21T02:09:19.393Z,652.73
2022-11-21T02:09:30.405Z,652.72
2022-11-21T02:09:41.414Z,652.73
2022-11-21T02:09:53.419Z,652.72
2022-11-21T02:10:04.434Z,652.71
2022-11-21T02:10:16.436Z,652.71
2022-11-21T02:10:27.460Z,652.68
2022-11-21T02:10:39.442Z,652.65
2022-11-21T02:10:50.460Z,652.68
2022-11-21T02:11:01.466Z,652.61
2022-11-21T02:11:12.384Z,652.61
2022-11-21T02:11:23.387Z,652.61
2022-11-21T02:11:34.400Z,652.56
2022-11-21T02:11:45.408Z,652.56
2022-11-21T02:11:57.406Z,652.54
2022-11-21T02:12:08.410Z,652.58
2022-11-21T02:12:19.415Z,652.53
2022-11-21T02:12:30.422Z,652.54
2022-11-21T02:12:41.428Z,652.52
2022-11-21T02:12:52.439Z,652.53
2022-11-21T02:13:03.471Z,652.48
2022-11-21T02:13:14.453Z,652.45
2022-11-21T02:13:25.456Z,652.40
2022-11-21T02:13:36.470Z,652.43
2022-11-21T02:13:47.385Z,652.39
2022-11-21T02:13:58.425Z,652.38
2022-11-21T02:14:09.418Z,652.37
2022-11-21T02:14:20.432Z,652.34
2022-11-21T02:14:31.436Z,652.34
2022-11-21T02:14:42.447Z,652.34
2022-11-21T02:14:53.466Z,652.29
2022-11-21T02:15:04.389Z,652.29
2022-11-21T02:15:15.389Z,652.31
2022-11-21T02:15:27.394Z,652.31
2022-11-21T02:15:38.406Z,652.32
2022-11-21T02:15:49.411Z,652.29
2022-11-21T02:16:00.430Z,652.29
2022-11-21T02:16:11.435Z,652.29
2022-11-21T02:16:22.439Z,652.30
2022-11-21T02:16:33.457Z,652.28
2022-11-21T02:16:44.464Z,652.28
2022-11-21T02:16:55.472Z,652.25
2022-11-21T02:17:07.395Z,652.24
2022-11-21T02:17:18.407Z,652.24
2022-11-21T02:17:30.407Z,652.22
2022-11-21T02:17:41.419Z,652.18
2022-11-21T02:17:52.425Z,652.19
2022-11-21T02:18:03.438Z,652.19
2022-11-21T02:18:14.450Z,652.14
2022-11-21T02:18:26.453Z,652.10
2022-11-21T02:18:37.458Z,652.08
2022-11-21T02:18:48.471Z,652.03
2022-11-21T02:18:59.494Z,652.00
2022-11-21T02:19:11.402Z,652.00
2022-11-21T02:19:22.425Z,651.97
2022-11-21T02:19:33.443Z,651.94
2022-11-21T02:19:44.461Z,651.92
2022-11-21T02:19:55.473Z,651.87